Latest Weather Observations for Arlington Reef

IDQ60801

Issued at 11:32 pm EST Tuesday 9 February 2016 (issued every 30 minutes, with the page automatically refreshed every 10 minutes)

About weather observations | Map of weather stations | Latest weather observations for QLD | Other Formats
Station Details ID: 200879 Name: ARLINGTON REEF Lat: -16.72 Lon: 146.11 Height: 0.0 m
Data from the previous 72 hours. | See also: Recent months at Arlington Reef
Date/Time
EST
Temp
°C
App
Temp
°C
Dew
Point
Rel
Hum
%
Delta-T
°C
Wind Press
QNH
hPa
Press
MSL
hPa
Rain
since 9 am
mm
Dir
 
Spd
km/h
Gust
km/h
Spd
kts
Gust
kts
09/11:30pm - - - - - SSE 28 33 15 18 1008.2 1008.2 -
09/11:00pm - - - - - SE 33 39 18 21 1008.5 1008.5 -
09/10:30pm - - - - - SE 33 41 18 22 1008.7 1008.7 -
09/10:00pm - - - - - SE 35 41 19 22 1008.5 1008.5 -
09/09:30pm - - - - - SE 35 41 19 22 1008.1 1008.1 -
09/09:00pm - - - - - SE 37 43 20 23 1007.9 1007.9 -
09/08:30pm - - - - - SE 37 44 20 24 1007.9 1007.9 -
09/08:00pm - - - - - SE 37 43 20 23 1007.7 1007.7 -
09/07:30pm - - - - - SSE 37 43 20 23 1007.6 1007.6 -
09/07:00pm - - - - - SSE 37 43 20 23 1006.8 1006.8 -
09/06:30pm - - - - - SSE 37 44 20 24 1006.7 1006.7 -
09/06:00pm - - - - - SSE 37 44 20 24 1006.3 1006.3 -
09/05:30pm - - - - - SSE 37 43 20 23 1005.8 1005.8 -
09/05:00pm - - - - - SSE 39 50 21 27 1005.8 1005.8 -
09/04:30pm - - - - - SSE 37 43 20 23 1005.9 1005.9 -
09/04:00pm - - - - - SSE 39 48 21 26 1005.6 1005.6 -
09/03:30pm - - - - - SSE 37 46 20 25 1006.0 1006.0 -
09/03:00pm - - - - - SSE 37 44 20 24 1006.5 1006.5 -
09/02:30pm - - - - - S 37 43 20 23 1006.5 1006.5 -
09/02:00pm - - - - - SSE 35 43 19 23 1007.0 1007.0 -
09/01:30pm - - - - - SSE 35 43 19 23 1007.3 1007.3 -
09/01:00pm - - - - - SE 35 48 19 26 1007.6 1007.6 -
09/12:30pm - - - - - SSE 37 43 20 23 1007.9 1007.9 -
09/12:20pm - - - - - SSE 35 43 19 23 1007.9 1007.9 -
09/12:00pm - - - - - S 30 37 16 20 1008.1 1008.1 -
09/11:30am - - - - - SSW 32 37 17 20 1008.2 1008.2 -
09/11:00am - - - - - SSW 19 30 10 16 1008.6 1008.6 -
09/10:30am - - - - - S 22 30 12 16 1009.0 1009.0 -
09/10:00am - - - - - S 28 35 15 19 1009.3 1009.3 -
09/09:30am - - - - - SSW 30 33 16 18 1009.0 1009.0 -
09/09:00am - - - - - SSW 37 44 20 24 1008.7 1008.7 -
09/08:30am - - - - - S 28 35 15 19 1008.5 1008.5 -
09/08:00am - - - - - S 32 35 17 19 1008.1 1008.1 -
09/07:30am - - - - - S 32 35 17 19 1007.8 1007.8 -
09/07:00am - - - - - S 35 39 19 21 1007.8 1007.8 -
09/06:30am - - - - - S 33 41 18 22 1007.2 1007.2 -
09/06:00am - - - - - S 28 32 15 17 1007.1 1007.1 -
09/05:30am - - - - - S 28 32 15 17 1006.6 1006.6 -
09/05:00am - - - - - S 26 30 14 16 1006.8 1006.8 -
09/04:30am - - - - - S 20 22 11 12 1007.1 1007.1 -
09/04:00am - - - - - S 20 24 11 13 1007.4 1007.4 -
09/03:30am - - - - - S 26 32 14 17 1007.5 1007.5 -
09/03:03am - - - - - SSE 52 70 28 38 1007.7 1007.7 -
09/03:00am - - - - - S 57 74 31 40 1007.6 1007.6 -
09/02:50am - - - - - S 57 76 31 41 1007.1 1007.1 -
09/02:30am - - - - - SSW 57 76 31 41 1007.0 1007.0 -
09/02:24am - - - - - SSW 56 67 30 36 1007.0 1007.0 -
09/02:10am - - - - - S 32 63 17 34 1007.5 1007.5 -
09/02:00am - - - - - S 22 28 12 15 1007.7 1007.7 -
09/01:30am - - - - - SSE 20 24 11 13 1007.6 1007.6 -
09/01:00am - - - - - SE 24 30 13 16 1007.9 1007.9 -
09/12:30am - - - - - SE 24 30 13 16 1007.9 1007.9 -
09/12:00am - - - - - SE 24 28 13 15 1008.3 1008.3 -
 
Date/Time
EST
Temp
°C
App
Temp
°C
Dew
Point
Rel
Hum
%
Delta-T
°C
Wind Press
QNH
hPa
Press
MSL
hPa
Rain
since 9 am
mm
Dir
 
Spd
km/h
Gust
km/h
Spd
kts
Gust
kts
08/11:30pm - - - - - SE 20 22 11 12 1009.0 1009.0 -
08/11:00pm - - - - - SE 19 20 10 11 1009.3 1009.3 -
08/10:30pm - - - - - SE 20 24 11 13 1009.2 1009.2 -
08/10:00pm - - - - - SSE 22 24 12 13 1008.8 1008.8 -
08/09:30pm - - - - - SE 20 24 11 13 1008.4 1008.4 -
08/09:00pm - - - - - SE 24 28 13 15 1008.1 1008.1 -
08/08:30pm - - - - - SE 28 32 15 17 1007.8 1007.8 -
08/08:00pm - - - - - SE 30 33 16 18 1007.7 1007.7 -
08/07:30pm - - - - - SE 30 35 16 19 1007.7 1007.7 -
08/07:00pm - - - - - SSE 32 37 17 20 1007.4 1007.4 -
08/06:30pm - - - - - SSE 32 35 17 19 1007.1 1007.1 -
08/06:00pm - - - - - SSE 30 33 16 18 1007.1 1007.1 -
08/05:30pm - - - - - SSE 20 26 11 14 1007.0 1007.0 -
08/05:00pm - - - - - SSE 19 24 10 13 1006.7 1006.7 -
08/04:30pm - - - - - SSE 22 24 12 13 1006.5 1006.5 -
08/04:00pm - - - - - SSE 26 30 14 16 1006.0 1006.0 -
08/03:30pm - - - - - SSE 22 26 12 14 1006.0 1006.0 -
08/03:00pm - - - - - SSE 28 32 15 17 1005.8 1005.8 -
08/02:30pm - - - - - SSE 26 32 14 17 1006.2 1006.2 -
08/02:00pm - - - - - SSE 24 28 13 15 1006.4 1006.4 -
08/01:30pm - - - - - SSE 24 26 13 14 1006.7 1006.7 -
08/01:00pm - - - - - SSE 26 28 14 15 1007.4 1007.4 -
08/12:30pm - - - - - SSE 24 30 13 16 1008.2 1008.2 -
08/12:00pm - - - - - SSE 20 24 11 13 1008.6 1008.6 -
08/11:30am - - - - - SSE 20 24 11 13 1009.0 1009.0 -
08/11:00am - - - - - SSE 19 22 10 12 1009.2 1009.2 -
08/10:30am - - - - - SSE 11 15 6 8 1009.5 1009.5 -
08/10:00am - - - - - SSE 11 13 6 7 1009.6 1009.6 -
08/09:30am - - - - - SSE 13 17 7 9 1009.8 1009.8 -
08/09:00am - - - - - S 20 26 11 14 1009.5 1009.5 -
08/08:30am - - - - - SSE 17 19 9 10 1009.2 1009.2 -
08/08:00am - - - - - SSE 13 15 7 8 1008.9 1008.9 -
08/07:30am - - - - - SSE 9 11 5 6 1008.8 1008.8 -
08/07:00am - - - - - SSE 6 6 3 3 1008.2 1008.2 -
08/06:30am - - - - - S 6 7 3 4 1007.9 1007.9 -
08/06:00am - - - - - CALM 0 0 0 0 1007.4 1007.4 -
08/05:30am - - - - - CALM 0 0 0 0 1006.9 1006.9 -
08/05:00am - - - - - SW 2 4 1 2 1006.8 1006.8 -
08/04:30am - - - - - SW 6 6 3 3 1006.9 1006.9 -
08/04:00am - - - - - SW 2 4 1 2 1006.8 1006.8 -
08/03:30am - - - - - SW 2 6 1 3 1006.8 1006.8 -
08/03:00am - - - - - NNW 4 6 2 3 1007.1 1007.1 -
08/02:30am - - - - - NNW 7 7 4 4 1007.1 1007.1 -
08/02:00am - - - - - NNW 7 7 4 4 1007.4 1007.4 -
08/01:30am - - - - - NNW 6 6 3 3 1007.7 1007.7 -
08/01:00am - - - - - E 4 6 2 3 1007.8 1007.8 -
08/12:30am - - - - - CALM 0 4 0 2 1008.0 1008.0 -
08/12:00am - - - - - NE 2 6 1 3 1008.2 1008.2 -
 
Date/Time
EST
Temp
°C
App
Temp
°C
Dew
Point
Rel
Hum
%
Delta-T
°C
Wind Press
QNH
hPa
Press
MSL
hPa
Rain
since 9 am
mm
Dir
 
Spd
km/h
Gust
km/h
Spd
kts
Gust
kts
07/11:30pm - - - - - NNE 2 4 1 2 1008.3 1008.3 -
07/11:00pm - - - - - N 6 6 3 3 1008.4 1008.4 -
07/10:30pm - - - - - N 6 6 3 3 1008.6 1008.6 -
07/10:00pm - - - - - N 9 11 5 6 1008.6 1008.6 -
07/09:30pm - - - - - N 4 6 2 3 1008.1 1008.1 -
07/09:00pm - - - - - NNE 6 7 3 4 1007.7 1007.7 -
07/08:30pm - - - - - NE 6 7 3 4 1007.3 1007.3 -
07/08:00pm - - - - - E 2 4 1 2 1007.3 1007.3 -
07/07:30pm - - - - - ESE 2 4 1 2 1006.7 1006.7 -
07/07:00pm - - - - - CALM 0 2 0 1 1006.5 1006.5 -
07/06:30pm - - - - - ENE 4 7 2 4 1006.2 1006.2 -
07/06:00pm - - - - - ENE 6 9 3 5 1005.8 1005.8 -
07/05:30pm - - - - - CALM 0 4 0 2 1005.6 1005.6 -
07/05:00pm - - - - - NNE 7 9 4 5 1005.2 1005.2 -
07/04:30pm - - - - - NNE 6 7 3 4 1004.7 1004.7 -
07/04:00pm - - - - - NNE 7 11 4 6 1004.4 1004.4 -
07/03:30pm - - - - - N 4 7 2 4 1004.6 1004.6 -
07/03:00pm - - - - - NNE 9 11 5 6 1004.5 1004.5 -
07/02:30pm - - - - - NNE 11 13 6 7 1004.6 1004.6 -
07/02:00pm - - - - - NNE 13 17 7 9 1004.8 1004.8 -
07/01:30pm - - - - - NNE 13 15 7 8 1005.3 1005.3 -
07/01:00pm - - - - - NNE 15 17 8 9 1005.8 1005.8 -
07/12:30pm - - - - - NNE 15 17 8 9 1006.2 1006.2 -
07/12:00pm - - - - - N 13 13 7 7 1006.4 1006.4 -
07/11:30am - - - - - N 11 15 6 8 1006.6 1006.6 -
07/11:00am - - - - - N 6 7 3 4 1006.6 1006.6 -
07/10:30am - - - - - NNW 6 7 3 4 1006.8 1006.8 -
07/10:00am - - - - - WNW 7 9 4 5 1006.9 1006.9 -
07/09:30am - - - - - WNW 9 9 5 5 1007.0 1007.0 -
07/09:00am - - - - - WNW 9 11 5 6 1006.9 1006.9 -
07/08:30am - - - - - W 11 13 6 7 1006.8 1006.8 -
07/08:00am - - - - - W 13 15 7 8 1006.6 1006.6 -
07/07:30am - - - - - WSW 13 13 7 7 1006.4 1006.4 -
07/07:00am - - - - - W 9 11 5 6 1006.0 1006.0 -
07/06:30am - - - - - WNW 9 11 5 6 1005.4 1005.4 -
07/06:00am - - - - - WNW 11 13 6 7 1005.1 1005.1 -
07/05:30am - - - - - WNW 9 11 5 6 1004.6 1004.6 -
07/05:00am - - - - - NW 6 7 3 4 1004.2 1004.2 -
07/04:30am - - - - - NNW 7 9 4 5 1004.0 1004.0 -
07/04:00am - - - - - N 9 11 5 6 1003.9 1003.9 -
07/03:30am - - - - - N 7 9 4 5 1003.8 1003.8 -
07/03:00am - - - - - N 9 13 5 7 1003.8 1003.8 -
07/02:30am - - - - - N 7 11 4 6 1004.2 1004.2 -
07/02:00am - - - - - N 13 15 7 8 1004.5 1004.5 -
07/01:30am - - - - - N 20 24 11 13 1004.7 1004.7 -
07/01:00am - - - - - N 22 26 12 14 1004.9 1004.9 -
07/12:30am - - - - - N 22 24 12 13 1005.2 1005.2 -
07/12:00am - - - - - N 24 26 13 14 1005.7 1005.7 -

Other Formats:

Comma delimited format used in spreadsheet applications
http://www.bom.gov.au/fwo/IDQ60801/IDQ60801.94284.axf

JavaScript Object Notation format (JSON) in row-major order
http://www.bom.gov.au/fwo/IDQ60801/IDQ60801.94284.json